createdAt,value
2018-12-01T00:04:01.335Z,6.90
2018-12-01T00:08:20.259Z,6.70
2018-12-01T00:12:24.214Z,6.73
2018-12-01T00:16:28.190Z,6.64
2018-12-01T00:20:35.097Z,6.62
2018-12-01T00:24:39.090Z,6.66
2018-12-01T00:28:43.137Z,6.74
2018-12-01T00:32:48.395Z,6.70
2018-12-01T00:36:52.840Z,6.70
2018-12-01T00:40:56.845Z,6.69
2018-12-01T00:45:00.846Z,6.72
2018-12-01T00:49:04.848Z,6.71
2018-12-01T00:53:08.941Z,6.67
2018-12-01T00:57:12.887Z,6.64
2018-12-01T01:01:16.872Z,6.68
2018-12-01T01:05:21.946Z,6.61
2018-12-01T01:09:25.987Z,6.57
2018-12-01T01:13:30.062Z,6.60
2018-12-01T01:17:34.039Z,6.52
2018-12-01T01:21:38.173Z,6.48
2018-12-01T01:25:42.206Z,6.47
2018-12-01T01:29:46.231Z,6.39
2018-12-01T01:33:50.166Z,6.44
2018-12-01T01:37:54.157Z,6.47
2018-12-01T01:41:58.251Z,6.52
2018-12-01T01:46:02.232Z,6.58
2018-12-01T01:50:08.452Z,6.57
2018-12-01T01:54:12.479Z,6.55
2018-12-01T01:58:16.542Z,6.49
2018-12-01T02:02:20.491Z,6.55
2018-12-01T02:06:24.489Z,6.62
2018-12-01T02:10:28.455Z,6.64
2018-12-01T02:14:32.535Z,6.65
2018-12-01T02:18:36.523Z,6.74
2018-12-01T02:22:40.571Z,6.82
2018-12-01T02:26:44.579Z,6.91
2018-12-01T02:30:48.526Z,6.94
2018-12-01T02:34:52.618Z,6.94
2018-12-01T02:38:56.645Z,6.98
2018-12-01T02:43:00.683Z,6.98
2018-12-01T02:47:09.778Z,7.07
2018-12-01T02:51:13.827Z,7.10
2018-12-01T02:55:17.762Z,7.07
2018-12-01T02:59:21.737Z,7.05
2018-12-01T03:03:25.679Z,7.16
2018-12-01T03:07:29.702Z,7.17
2018-12-01T03:11:33.760Z,7.10
2018-12-01T03:15:37.743Z,7.09
2018-12-01T03:19:41.773Z,7.13
2018-12-01T03:23:45.804Z,7.08
2018-12-01T03:27:50.525Z,7.12
2018-12-01T03:31:54.467Z,7.01
2018-12-01T03:35:58.402Z,7.04
2018-12-01T03:40:02.438Z,7.04
2018-12-01T03:44:06.494Z,7.05
2018-12-01T03:48:10.456Z,7.06
2018-12-01T03:52:14.420Z,6.99
2018-12-01T03:56:18.353Z,7.01
2018-12-01T04:00:30.154Z,7.00
2018-12-01T04:04:34.145Z,7.00
2018-12-01T04:08:38.146Z,6.97
2018-12-01T04:12:42.096Z,6.94
2018-12-01T04:16:46.111Z,6.81
2018-12-01T04:20:50.148Z,6.64
2018-12-01T04:24:54.150Z,6.61
2018-12-01T04:28:58.103Z,6.56
2018-12-01T04:33:02.117Z,6.46
2018-12-01T04:37:06.121Z,6.45
2018-12-01T04:41:10.138Z,6.41
2018-12-01T04:45:14.193Z,6.33
2018-12-01T04:49:18.180Z,6.31
2018-12-01T04:53:22.163Z,6.27
2018-12-01T04:57:26.161Z,6.12
2018-12-01T05:01:31.094Z,6.12
2018-12-01T05:05:35.038Z,6.01
2018-12-01T05:09:39.088Z,6.03
2018-12-01T05:13:43.042Z,6.08
2018-12-01T05:17:47.498Z,6.07
2018-12-01T05:21:51.441Z,5.98
2018-12-01T05:25:56.423Z,5.95
2018-12-01T05:30:00.441Z,5.96
2018-12-01T05:34:04.455Z,5.96
2018-12-01T05:38:08.400Z,6.02
2018-12-01T05:42:12.406Z,6.11
2018-12-01T05:46:16.362Z,6.05
2018-12-01T05:50:23.015Z,6.05
2018-12-01T05:54:26.973Z,6.08
2018-12-01T05:58:30.945Z,6.12
2018-12-01T06:02:34.967Z,6.00
2018-12-01T06:06:38.925Z,6.04
2018-12-01T06:10:42.902Z,5.87
2018-12-01T06:14:46.927Z,5.85
2018-12-01T06:18:51.980Z,5.76
2018-12-01T06:22:56.006Z,5.73
2018-12-01T06:27:00.040Z,5.69
2018-12-01T06:31:04.025Z,5.92
2018-12-01T06:35:08.082Z,5.89
2018-12-01T06:39:12.210Z,5.90
2018-12-01T06:43:16.181Z,5.93
2018-12-01T06:47:20.131Z,5.98
2018-12-01T06:51:24.171Z,5.98
2018-12-01T06:55:28.121Z,5.99
2018-12-01T06:59:32.113Z,5.90
2018-12-01T07:03:36.115Z,5.95
2018-12-01T07:07:40.084Z,6.04
2018-12-01T07:11:44.048Z,6.14
2018-12-01T07:15:48.184Z,6.09
2018-12-01T07:19:52.203Z,6.11
2018-12-01T07:23:56.258Z,6.17
2018-12-01T07:28:00.247Z,6.16
2018-12-01T07:32:04.367Z,6.20
2018-12-01T07:36:08.295Z,6.16
2018-12-01T07:40:14.015Z,6.10
2018-12-01T07:44:18.078Z,6.19
2018-12-01T07:48:22.079Z,6.18
2018-12-01T07:52:26.071Z,6.22
2018-12-01T07:56:30.012Z,6.21
2018-12-01T08:00:36.087Z,6.25
2018-12-01T08:04:40.164Z,6.53
2018-12-01T08:08:44.107Z,6.39
2018-12-01T08:12:48.095Z,6.43
2018-12-01T08:16:52.176Z,6.57
2018-12-01T08:20:56.139Z,6.53
2018-12-01T08:25:00.447Z,6.74
2018-12-01T08:29:04.628Z,6.94
2018-12-01T08:33:08.616Z,7.02
2018-12-01T08:37:14.042Z,7.19
2018-12-01T08:41:18.056Z,7.47
2018-12-01T08:45:22.376Z,7.51
2018-12-01T08:49:26.353Z,7.74
2018-12-01T08:53:32.481Z,7.67
2018-12-01T08:57:36.530Z,7.75
2018-12-01T09:01:40.581Z,7.47
2018-12-01T09:05:44.768Z,7.50
2018-12-01T09:09:48.856Z,7.69
2018-12-01T09:13:53.468Z,7.99
2018-12-01T09:17:57.579Z,8.32
2018-12-01T09:22:01.630Z,8.03
2018-12-01T09:26:20.008Z,8.51
2018-12-01T09:50:26.167Z,9.56
2018-12-01T09:54:31.917Z,9.54
2018-12-01T09:58:37.161Z,9.59
2018-12-01T10:02:41.570Z,8.99
2018-12-01T10:06:45.607Z,8.87
2018-12-01T10:11:04.228Z,8.71
2018-12-01T10:15:11.112Z,8.81
2018-12-01T10:19:15.106Z,8.87
2018-12-01T10:23:19.202Z,8.93
2018-12-01T10:27:23.159Z,8.86
2018-12-01T10:31:27.577Z,8.89
2018-12-01T10:35:31.306Z,8.92
2018-12-01T10:39:35.198Z,8.98
2018-12-01T10:43:39.348Z,9.03
2018-12-01T10:47:43.924Z,8.97
2018-12-01T10:51:48.097Z,8.96
2018-12-01T10:55:52.279Z,9.22
2018-12-01T10:59:56.862Z,9.26
2018-12-01T11:04:06.102Z,9.45
2018-12-01T11:08:11.346Z,9.56
2018-12-01T11:12:15.463Z,9.60
2018-12-01T11:16:19.551Z,9.82
2018-12-01T11:20:23.497Z,9.80
2018-12-01T11:24:28.062Z,10.08
2018-12-01T11:28:32.203Z,10.62
2018-12-01T11:32:36.236Z,10.81
2018-12-01T11:36:40.379Z,10.58
2018-12-01T11:40:45.477Z,10.45
2018-12-01T11:44:49.554Z,10.31
2018-12-01T11:48:53.659Z,10.26
2018-12-01T11:52:57.731Z,10.08
2018-12-01T11:57:02.336Z,10.02
2018-12-01T12:01:06.519Z,10.15
2018-12-01T12:05:11.659Z,10.12
2018-12-01T12:09:15.764Z,10.18
2018-12-01T12:13:22.286Z,10.22
2018-12-01T12:17:26.383Z,10.24
2018-12-01T12:21:30.482Z,10.24
2018-12-01T12:25:34.468Z,10.17
2018-12-01T12:29:38.561Z,10.06
2018-12-01T12:33:43.146Z,10.06
2018-12-01T12:37:47.359Z,10.01
2018-12-01T12:41:51.424Z,10.02
2018-12-01T12:45:55.427Z,9.91
2018-12-01T12:49:59.470Z,9.85
2018-12-01T12:54:03.697Z,9.80
2018-12-01T12:58:07.678Z,9.75
2018-12-01T13:02:11.843Z,9.72
2018-12-01T13:06:15.915Z,9.74
2018-12-01T13:10:21.003Z,9.75
2018-12-01T13:14:25.191Z,9.73
2018-12-01T13:18:29.193Z,9.70
2018-12-01T13:22:33.200Z,9.62
2018-12-01T13:26:37.221Z,9.67
2018-12-01T13:30:57.179Z,9.61
2018-12-01T13:35:01.191Z,9.54
2018-12-01T13:39:08.299Z,9.53
2018-12-01T13:43:12.275Z,9.54
2018-12-01T13:47:16.344Z,9.54
2018-12-01T13:51:26.602Z,9.48
2018-12-01T13:55:32.042Z,9.45
2018-12-01T13:59:36.114Z,9.44
2018-12-01T14:03:40.081Z,9.51
2018-12-01T14:07:44.113Z,9.38
2018-12-01T14:11:48.089Z,9.21
2018-12-01T14:15:52.029Z,9.12
2018-12-01T14:19:55.953Z,9.00
2018-12-01T14:23:59.886Z,8.89
2018-12-01T14:28:05.631Z,8.80
2018-12-01T14:32:09.688Z,8.73
2018-12-01T14:36:13.709Z,8.55
2018-12-01T14:40:17.824Z,8.44
2018-12-01T14:44:21.763Z,8.42
2018-12-01T14:48:25.841Z,8.26
2018-12-01T14:52:29.835Z,8.25
2018-12-01T14:56:33.815Z,8.19
2018-12-01T15:00:38.087Z,8.08
2018-12-01T15:04:42.059Z,7.98
2018-12-01T15:08:46.259Z,8.00
2018-12-01T15:12:50.424Z,7.98
2018-12-01T15:16:54.812Z,7.92
2018-12-01T15:21:01.074Z,7.99
2018-12-01T15:25:08.030Z,7.89
2018-12-01T15:29:12.068Z,7.91
2018-12-01T15:33:16.680Z,7.91
2018-12-01T15:37:21.108Z,7.97
2018-12-01T15:41:25.387Z,7.84
2018-12-01T15:45:29.373Z,7.94
2018-12-01T15:49:33.392Z,7.90
2018-12-01T15:53:37.407Z,7.84
2018-12-01T15:57:41.339Z,7.83
2018-12-01T16:01:45.318Z,7.77
2018-12-01T16:05:49.315Z,7.90
2018-12-01T16:09:53.311Z,7.85
2018-12-01T16:13:57.241Z,7.86
2018-12-01T16:18:01.246Z,7.91
2018-12-01T16:22:05.560Z,7.93
2018-12-01T16:26:09.494Z,8.01
2018-12-01T16:30:24.452Z,8.01
2018-12-01T16:34:29.861Z,8.14
2018-12-01T16:38:35.966Z,8.13
2018-12-01T16:42:40.648Z,8.05
2018-12-01T16:46:44.740Z,8.02
2018-12-01T16:50:48.782Z,7.90
2018-12-01T16:54:52.775Z,7.90
2018-12-01T16:58:56.784Z,7.83
2018-12-01T17:03:00.758Z,7.90
2018-12-01T17:07:04.830Z,7.79
2018-12-01T17:11:09.462Z,7.94
2018-12-01T17:15:16.507Z,7.88
2018-12-01T17:19:20.484Z,7.99
2018-12-01T17:23:24.538Z,8.04
2018-12-01T17:27:28.550Z,8.11
2018-12-01T17:31:32.571Z,8.16
2018-12-01T17:35:36.734Z,8.29
2018-12-01T17:39:40.676Z,8.37
2018-12-01T17:43:48.558Z,8.33
2018-12-01T17:47:52.503Z,8.35
2018-12-01T17:51:56.564Z,8.32
2018-12-01T17:56:00.535Z,8.42
2018-12-01T18:00:09.134Z,8.41
2018-12-01T18:04:13.121Z,8.46
2018-12-01T18:08:20.571Z,8.46
2018-12-01T18:12:24.501Z,8.50
2018-12-01T18:16:28.549Z,8.58
2018-12-01T18:20:32.478Z,8.79
2018-12-01T18:24:36.514Z,8.93
2018-12-01T18:28:43.860Z,8.98
2018-12-01T18:32:48.476Z,9.07
2018-12-01T18:36:52.607Z,9.18
2018-12-01T18:40:56.731Z,9.25
2018-12-01T18:45:01.632Z,9.31
2018-12-01T18:49:05.075Z,9.31
2018-12-01T18:53:10.820Z,9.36
2018-12-01T18:57:15.317Z,9.24
2018-12-01T19:01:19.363Z,9.50
2018-12-01T19:05:23.619Z,9.46
2018-12-01T19:09:27.662Z,9.52
2018-12-01T19:13:31.976Z,9.45
2018-12-01T19:17:36.355Z,9.54
2018-12-01T19:21:40.588Z,9.58
2018-12-01T19:25:46.104Z,9.69
2018-12-01T19:29:50.212Z,9.70
2018-12-01T19:33:54.151Z,9.73
2018-12-01T19:37:58.134Z,9.81
2018-12-01T19:42:02.183Z,9.84
2018-12-01T19:46:06.512Z,9.80
2018-12-01T19:50:20.728Z,9.87
2018-12-01T19:54:24.705Z,9.92
2018-12-01T19:58:29.833Z,10.01
2018-12-01T20:02:34.098Z,10.03
2018-12-01T20:06:38.123Z,9.94
2018-12-01T20:10:45.116Z,9.92
2018-12-01T20:14:49.176Z,9.96
2018-12-01T20:18:54.218Z,9.96
2018-12-01T20:22:58.246Z,9.93
2018-12-01T20:27:02.334Z,9.94
2018-12-01T20:31:06.594Z,9.88
2018-12-01T20:35:12.067Z,9.86
2018-12-01T20:39:22.019Z,9.94
2018-12-01T20:43:26.028Z,9.96
2018-12-01T20:47:30.123Z,10.01
2018-12-01T20:51:34.090Z,9.97
2018-12-01T20:55:38.762Z,10.03
2018-12-01T20:59:42.869Z,10.02
2018-12-01T21:03:46.923Z,9.99
2018-12-01T21:07:51.175Z,9.98
2018-12-01T21:11:55.528Z,10.04
2018-12-01T21:15:59.710Z,9.96
2018-12-01T21:20:05.322Z,10.01
2018-12-01T21:24:09.654Z,10.00
2018-12-01T21:28:14.344Z,9.99
2018-12-01T21:32:18.355Z,9.95
2018-12-01T21:36:22.405Z,10.02
2018-12-01T21:40:26.458Z,10.05
2018-12-01T21:44:30.575Z,10.07
2018-12-01T21:48:34.571Z,10.08
2018-12-01T21:52:38.519Z,10.14
2018-12-01T21:56:42.635Z,10.08
2018-12-01T22:00:50.144Z,10.16
2018-12-01T22:04:54.122Z,10.05
2018-12-01T22:08:58.162Z,10.02
2018-12-01T22:13:02.091Z,10.10
2018-12-01T22:17:07.237Z,10.12
2018-12-01T22:21:11.328Z,10.12
2018-12-01T22:25:15.394Z,10.20
2018-12-01T22:29:19.392Z,10.19
2018-12-01T22:33:25.918Z,10.15
2018-12-01T22:37:29.866Z,10.14
2018-12-01T22:41:33.917Z,10.20
2018-12-01T22:45:37.942Z,10.22
2018-12-01T22:49:41.983Z,10.26
2018-12-01T22:53:45.950Z,10.23
2018-12-01T22:57:52.300Z,10.26
2018-12-01T23:01:56.266Z,10.33
2018-12-01T23:06:00.366Z,10.34
2018-12-01T23:10:06.276Z,10.43
2018-12-01T23:14:10.427Z,10.43
2018-12-01T23:18:18.071Z,10.33
2018-12-01T23:22:22.112Z,10.39
2018-12-01T23:26:26.116Z,10.36
2018-12-01T23:30:30.731Z,10.33
2018-12-01T23:34:34.807Z,10.36
2018-12-01T23:38:38.907Z,10.30
2018-12-01T23:42:43.008Z,10.30
2018-12-01T23:46:48.579Z,10.31
2018-12-01T23:50:54.029Z,10.32
2018-12-01T23:54:58.059Z,10.35
2018-12-01T23:59:02.093Z,10.35
